Time;durP1;ratioP1;P1;durP2;ratioP2;P2;SDS_P1;SDS_P2;PMS_P1;PMS_P2;Temp;Humidity;BMP_temperature;BMP_pressure;BME280_temperature;BME280_humidity;BME280_pressure;Samples;Min_cycle;Max_cycle;Signal;HPM_P1;HPM_P2
2022/03/19 00:00:13;;;;;;;12.07;4.40;;;6.70;1.00;;;;;;4995058;28;20595;-58
2022/03/19 00:02:39;;;;;;;14.20;5.27;;;6.60;1.00;;;;;;4994805;28;20179;-58
2022/03/19 00:05:05;;;;;;;10.63;5.07;;;6.60;1.00;;;;;;4994988;28;20437;-58
2022/03/19 00:07:32;;;;;;;5.73;4.90;;;6.50;1.00;;;;;;4990905;28;20190;-59
2022/03/19 00:09:58;;;;;;;10.53;5.67;;;6.50;1.00;;;;;;4975435;28;20415;-58
2022/03/19 00:12:23;;;;;;;13.40;7.80;;;6.40;1.00;;;;;;4991702;28;20449;-58
2022/03/19 00:14:49;;;;;;;12.53;9.13;;;6.40;1.00;;;;;;4994512;28;20250;-58
2022/03/19 00:17:14;;;;;;;13.83;8.70;;;6.30;1.00;;;;;;4994564;28;20183;-58
2022/03/19 00:19:40;;;;;;;7.33;6.70;;;6.30;1.00;;;;;;4995051;28;20176;-57
2022/03/19 00:22:06;;;;;;;10.17;7.57;;;6.20;1.00;;;;;;4994645;28;20266;-57
2022/03/19 00:24:34;;;;;;;6.33;5.83;;;6.20;1.00;;;;;;4994701;28;20739;-59
2022/03/19 00:26:59;;;;;;;15.10;5.10;;;6.20;1.00;;;;;;4993800;28;20444;-58
2022/03/19 00:29:25;;;;;;;10.10;5.67;;;6.20;1.00;;;;;;4994547;28;20786;-59
2022/03/19 00:31:50;;;;;;;11.23;5.30;;;6.20;1.00;;;;;;4994426;28;20190;-58
2022/03/19 00:34:16;;;;;;;11.50;8.87;;;6.20;1.00;;;;;;4994271;28;20211;-58
2022/03/19 00:36:42;;;;;;;10.53;9.43;;;6.20;1.00;;;;;;4994411;28;20532;-57
2022/03/19 00:39:08;;;;;;;10.00;7.93;;;6.20;1.00;;;;;;4977365;28;20191;-57
2022/03/19 00:41:34;;;;;;;18.40;7.10;;;6.20;1.00;;;;;;4973718;28;20423;-58
2022/03/19 00:43:59;;;;;;;8.80;6.73;;;6.20;1.00;;;;;;4993596;28;20191;-58
2022/03/19 00:46:25;;;;;;;6.13;5.50;;;6.20;1.00;;;;;;4994083;28;20234;-59
2022/03/19 00:48:50;;;;;;;11.53;7.70;;;6.20;1.00;;;;;;4994033;28;20237;-58
2022/03/19 00:51:16;;;;;;;16.57;7.10;;;6.20;1.00;;;;;;4994190;28;21056;-57
2022/03/19 00:53:41;;;;;;;8.93;7.13;;;6.20;1.00;;;;;;4994083;28;20719;-59
2022/03/19 00:56:07;;;;;;;17.40;9.17;;;6.20;1.00;;;;;;4993841;28;20287;-58
2022/03/19 00:58:34;;;;;;;11.80;8.63;;;6.20;1.00;;;;;;4993322;28;20206;-58
2022/03/19 01:01:00;;;;;;;22.57;10.67;;;6.20;1.00;;;;;;4993836;28;20414;-58
2022/03/19 01:03:26;;;;;;;18.90;10.47;;;6.20;1.00;;;;;;4993763;28;20703;-58
2022/03/19 01:05:51;;;;;;;14.37;9.40;;;6.20;1.00;;;;;;4993980;28;20422;-58
2022/03/19 01:08:17;;;;;;;16.40;8.77;;;6.20;1.00;;;;;;4983665;28;20741;-58
2022/03/19 01:10:43;;;;;;;26.17;8.67;;;6.20;1.00;;;;;;4974403;28;20215;-58
2022/03/19 01:13:09;;;;;;;10.30;6.50;;;6.20;1.00;;;;;;4974140;28;20184;-58
2022/03/19 01:15:34;;;;;;;13.67;7.87;;;6.20;1.00;;;;;;4993235;28;20175;-58
2022/03/19 01:18:01;;;;;;;11.57;5.83;;;6.20;1.00;;;;;;4993707;28;20172;-58
2022/03/19 01:20:27;;;;;;;10.67;6.63;;;6.20;1.00;;;;;;4993764;28;20214;-58
2022/03/19 01:22:52;;;;;;;13.90;5.83;;;6.30;1.00;;;;;;4982831;28;20450;-58
2022/03/19 01:25:19;;;;;;;7.37;5.80;;;6.40;99.90;;;;;;4973092;28;20933;-57
2022/03/19 01:27:46;;;;;;;8.43;5.07;;;6.60;99.90;;;;;;4974076;28;20179;-58
2022/03/19 01:30:14;;;;;;;11.00;6.03;;;6.70;99.90;;;;;;4974106;28;20415;-58
2022/03/19 01:32:41;;;;;;;20.40;6.20;;;6.90;1.00;;;;;;4990946;28;20439;-59
2022/03/19 01:35:08;;;;;;;11.53;6.30;;;6.90;1.00;;;;;;4993291;28;20902;-59
2022/03/19 01:37:34;;;;;;;12.33;5.20;;;7.00;1.00;;;;;;4988993;28;20522;-59
2022/03/19 01:39:59;;;;;;;12.13;6.10;;;7.10;1.00;;;;;;4973726;28;20515;-58
2022/03/19 01:42:28;;;;;;;16.60;6.60;;;7.10;1.00;;;;;;4956305;28;20638;-58
2022/03/19 01:44:55;;;;;;;6.43;5.00;;;7.20;1.00;;;;;;4973686;28;20211;-58
2022/03/19 01:47:21;;;;;;;11.93;5.13;;;7.20;1.00;;;;;;4973667;28;20427;-57
2022/03/19 01:49:47;;;;;;;11.67;6.20;;;7.20;1.00;;;;;;4989106;28;20442;-57
2022/03/19 01:52:13;;;;;;;14.73;6.33;;;7.30;1.00;;;;;;4992706;28;20509;-58
2022/03/19 01:54:41;;;;;;;12.90;6.07;;;7.30;1.00;;;;;;4992483;28;20225;-58
2022/03/19 01:57:07;;;;;;;15.73;6.70;;;7.30;1.00;;;;;;4992897;28;20175;-58
2022/03/19 01:59:36;;;;;;;20.67;9.20;;;7.30;1.00;;;;;;4992863;28;20418;-58
2022/03/19 02:02:03;;;;;;;8.20;5.67;;;7.20;1.00;;;;;;4992764;28;20425;-58
2022/03/19 02:04:30;;;;;;;18.83;7.13;;;7.20;1.00;;;;;;4992593;28;21009;-58
2022/03/19 02:06:55;;;;;;;15.53;6.03;;;7.10;1.00;;;;;;4992296;28;20457;-58
2022/03/19 02:09:22;;;;;;;20.50;5.80;;;7.10;1.00;;;;;;4992141;28;20944;-58
2022/03/19 02:11:48;;;;;;;13.43;6.87;;;7.10;1.00;;;;;;4974947;28;20187;-58
2022/03/19 02:14:15;;;;;;;14.93;6.50;;;7.10;1.00;;;;;;4992531;28;20457;-58
2022/03/19 02:16:41;;;;;;;7.63;6.03;;;7.10;1.00;;;;;;4992293;28;20173;-58
2022/03/19 02:19:06;;;;;;;29.83;7.20;;;7.10;1.00;;;;;;4992315;28;20410;-58
2022/03/19 02:21:43;;;;;;;9.80;6.67;;;7.10;1.00;;;;;;4991295;28;20852;-58
2022/03/19 02:26:55;;;;;;;13.93;6.40;;;7.10;1.00;;;;;;4992247;28;20445;-57
2022/03/19 02:29:21;;;;;;;12.20;6.20;;;7.10;1.00;;;;;;4992176;28;20787;-58
2022/03/19 02:31:49;;;;;;;8.50;5.40;;;7.10;1.00;;;;;;4992113;28;20932;-58
2022/03/19 02:34:15;;;;;;;7.23;5.17;;;7.10;1.00;;;;;;4991915;28;20462;-58
2022/03/19 02:36:41;;;;;;;11.77;6.00;;;7.10;1.00;;;;;;4992211;28;20916;-58
2022/03/19 02:39:13;;;;;;;10.87;7.00;;;7.20;1.00;;;;;;4975302;28;20697;-58
2022/03/19 02:41:46;;;;;;;13.90;6.93;;;7.10;1.00;;;;;;4991318;28;20179;-57
2022/03/19 02:44:13;;;;;;;16.23;6.50;;;7.10;1.00;;;;;;4992061;28;20422;-58
2022/03/19 02:46:47;;;;;;;14.20;6.77;;;7.10;1.00;;;;;;4991806;28;20452;-57
2022/03/19 02:49:14;;;;;;;12.97;6.27;;;7.10;1.00;;;;;;4991930;28;20421;-58
2022/03/19 02:51:41;;;;;;;11.87;7.43;;;7.10;1.00;;;;;;4992048;28;20492;-58
2022/03/19 02:54:10;;;;;;;12.10;7.13;;;7.00;1.00;;;;;;4991542;28;20990;-58
2022/03/19 02:56:38;;;;;;;11.47;6.30;;;7.00;1.00;;;;;;4991464;28;20442;-58
2022/03/19 02:59:18;;;;;;;14.03;6.60;;;7.00;1.00;;;;;;4990204;28;20441;-57
2022/03/19 03:01:52;;;;;;;11.33;5.63;;;6.90;1.00;;;;;;4991647;28;20422;-57
2022/03/19 03:04:18;;;;;;;17.07;6.90;;;6.90;1.00;;;;;;4990897;28;20472;-58
2022/03/19 03:06:45;;;;;;;17.77;6.77;;;6.80;1.00;;;;;;4991733;28;20415;-58
2022/03/19 03:09:12;;;;;;;13.63;6.97;;;6.80;1.00;;;;;;4991619;28;20431;-58
2022/03/19 03:11:39;;;;;;;18.33;9.63;;;6.80;1.00;;;;;;4991581;28;20422;-58
2022/03/19 03:14:06;;;;;;;10.57;7.67;;;6.80;1.00;;;;;;4991386;28;20462;-58
2022/03/19 03:16:33;;;;;;;12.50;6.80;;;6.80;1.00;;;;;;4991601;28;20441;-58
2022/03/19 03:19:02;;;;;;;7.60;6.90;;;6.80;1.00;;;;;;4991711;28;20464;-58
2022/03/19 03:21:27;;;;;;;14.73;8.50;;;6.70;1.00;;;;;;4991574;28;20513;-58
2022/03/19 03:23:54;;;;;;;12.37;7.47;;;6.70;1.00;;;;;;4991570;28;20997;-58
2022/03/19 03:26:20;;;;;;;20.70;8.60;;;6.70;1.00;;;;;;4991318;28;20187;-58
2022/03/19 03:28:46;;;;;;;11.23;8.07;;;6.60;1.00;;;;;;4991094;28;20430;-58
2022/03/19 03:31:12;;;;;;;13.37;7.53;;;6.50;1.00;;;;;;4991354;28;20414;-58
2022/03/19 03:33:38;;;;;;;15.77;8.73;;;6.50;1.00;;;;;;4991335;28;20851;-58
2022/03/19 03:36:04;;;;;;;15.53;8.33;;;6.50;1.00;;;;;;4991358;28;20186;-58
2022/03/19 03:38:30;;;;;;;14.87;8.20;;;6.50;1.00;;;;;;4991346;28;20434;-58
2022/03/19 03:40:56;;;;;;;14.33;8.10;;;6.40;1.00;;;;;;4991184;28;20473;-58
2022/03/19 03:43:21;;;;;;;21.27;8.00;;;6.30;1.00;;;;;;4991362;28;20422;-58
2022/03/19 03:45:47;;;;;;;19.23;8.10;;;6.30;1.00;;;;;;4991259;28;20661;-58
2022/03/19 03:48:13;;;;;;;12.10;7.07;;;6.30;1.00;;;;;;4990857;28;20266;-58
2022/03/19 03:50:39;;;;;;;8.63;7.43;;;6.20;1.00;;;;;;4991280;28;20712;-58
2022/03/19 03:53:05;;;;;;;21.70;8.00;;;6.20;1.00;;;;;;4991111;28;20254;-57
2022/03/19 03:55:32;;;;;;;14.17;7.97;;;6.20;1.00;;;;;;4991229;28;20429;-57
2022/03/19 03:58:00;;;;;;;8.10;6.00;;;6.20;1.00;;;;;;4989724;28;20418;-58
2022/03/19 04:00:26;;;;;;;13.30;7.07;;;6.30;1.00;;;;;;4991009;28;20415;-58
2022/03/19 04:02:51;;;;;;;8.37;6.40;;;6.30;99.90;;;;;;4990837;28;20445;-58
2022/03/19 04:05:17;;;;;;;14.07;7.40;;;6.30;99.90;;;;;;4990898;28;20897;-58
2022/03/19 04:07:42;;;;;;;13.50;6.30;;;6.40;99.90;;;;;;4985608;28;20507;-58
2022/03/19 04:10:08;;;;;;;16.47;7.40;;;6.40;99.90;;;;;;4971641;28;20712;-58
2022/03/19 04:12:35;;;;;;;15.40;7.50;;;6.40;99.90;;;;;;4971846;28;20184;-58
2022/03/19 04:15:01;;;;;;;11.27;6.30;;;6.40;99.90;;;;;;4971510;28;20207;-58
2022/03/19 04:17:26;;;;;;;19.53;7.07;;;6.40;99.90;;;;;;4975390;28;20814;-58
2022/03/19 04:19:52;;;;;;;13.73;8.50;;;6.30;99.90;;;;;;4988180;28;20183;-58
2022/03/19 04:22:17;;;;;;;15.83;7.53;;;6.30;99.90;;;;;;4994693;28;20179;-57
2022/03/19 04:24:43;;;;;;;16.10;8.43;;;6.30;99.90;;;;;;4994690;28;20210;-58
2022/03/19 04:27:10;;;;;;;15.03;7.80;;;6.20;99.90;;;;;;4994636;28;20645;-58
2022/03/19 04:29:36;;;;;;;20.37;9.07;;;6.20;99.90;;;;;;4994499;28;20191;-59
2022/03/19 04:32:02;;;;;;;14.80;7.90;;;6.20;99.90;;;;;;4994484;28;20517;-57
2022/03/19 04:34:27;;;;;;;21.70;10.63;;;6.20;99.90;;;;;;4994131;28;20205;-58
2022/03/19 04:36:53;;;;;;;18.13;9.20;;;6.10;99.90;;;;;;4994237;28;20179;-58
2022/03/19 04:39:19;;;;;;;23.77;9.57;;;6.10;99.90;;;;;;4975641;28;20409;-58
2022/03/19 04:41:44;;;;;;;16.87;8.40;;;6.00;99.90;;;;;;4992602;28;20183;-58
2022/03/19 04:44:10;;;;;;;19.10;10.00;;;6.00;99.90;;;;;;4994104;28;20179;-58
2022/03/19 04:46:36;;;;;;;11.70;8.87;;;6.10;99.90;;;;;;4994207;28;20201;-57
2022/03/19 04:49:02;;;;;;;11.10;7.80;;;6.00;99.90;;;;;;4994160;28;20262;-58
2022/03/19 04:51:34;;;;;;;28.33;9.07;;;6.00;99.90;;;;;;4993692;28;20183;-58
2022/03/19 04:54:00;;;;;;;20.43;8.53;;;6.00;99.90;;;;;;4993578;28;20516;-58
2022/03/19 04:56:28;;;;;;;13.80;8.13;;;6.00;99.90;;;;;;4994051;28;20410;-57
2022/03/19 04:58:55;;;;;;;15.43;8.57;;;6.00;99.90;;;;;;4994004;28;20418;-57
2022/03/19 05:01:25;;;;;;;16.50;8.90;;;6.00;99.90;;;;;;4993714;28;20438;-57
2022/03/19 05:03:50;;;;;;;19.27;8.10;;;6.00;99.90;;;;;;4993863;28;20525;-58
2022/03/19 05:06:16;;;;;;;26.00;8.00;;;5.90;99.90;;;;;;4993281;28;20987;-57
2022/03/19 05:08:41;;;;;;;16.10;8.03;;;5.80;99.90;;;;;;4980227;28;20271;-57
2022/03/19 05:11:13;;;;;;;17.63;9.00;;;5.90;99.90;;;;;;4974122;28;20187;-57
2022/03/19 05:13:44;;;;;;;26.77;9.73;;;5.90;99.90;;;;;;4974427;28;20188;-58
2022/03/19 05:16:13;;;;;;;15.10;7.60;;;5.90;99.90;;;;;;4979064;28;20410;-58
2022/03/19 05:18:39;;;;;;;19.27;8.10;;;5.80;99.90;;;;;;4984352;28;20905;-58
2022/03/19 05:21:05;;;;;;;13.20;7.80;;;5.80;99.90;;;;;;4974007;28;20454;-58
2022/03/19 05:23:31;;;;;;;14.13;7.80;;;5.80;1.00;;;;;;4977929;28;20198;-57
2022/03/19 05:25:58;;;;;;;16.00;6.87;;;5.80;1.00;;;;;;4977243;28;20191;-57
2022/03/19 05:28:24;;;;;;;17.43;6.90;;;5.80;1.00;;;;;;4992966;28;20425;-58
2022/03/19 05:30:50;;;;;;;7.67;6.30;;;5.80;1.00;;;;;;4993006;28;20422;-57
2022/03/19 05:33:16;;;;;;;19.43;7.03;;;5.90;1.00;;;;;;4985057;28;20800;-57
2022/03/19 05:35:42;;;;;;;18.63;7.70;;;6.00;1.00;;;;;;4993080;28;20980;-57
2022/03/19 05:38:08;;;;;;;11.47;5.67;;;6.00;1.00;;;;;;4985573;28;20864;-57
2022/03/19 05:40:34;;;;;;;6.30;5.30;;;6.00;1.00;;;;;;4992675;28;20521;-57
2022/03/19 05:43:00;;;;;;;12.63;4.20;;;6.00;1.00;;;;;;4973506;28;20176;-57
2022/03/19 05:45:26;;;;;;;6.00;4.60;;;5.90;49.30;;;;;;4981646;28;20535;-57
2022/03/19 05:47:51;;;;;;;13.03;4.53;;;5.90;47.90;;;;;;4992469;28;20233;-57
2022/03/19 05:50:17;;;;;;;8.30;4.40;;;5.90;59.80;;;;;;4984704;28;20430;-57
2022/03/19 05:52:47;;;;;;;14.67;4.30;;;5.90;74.60;;;;;;4976620;28;20289;-57
2022/03/19 05:55:14;;;;;;;12.90;5.03;;;5.80;79.10;;;;;;4992294;28;20485;-57
2022/03/19 05:57:40;;;;;;;5.17;4.73;;;5.80;64.50;;;;;;4991179;28;20449;-57
2022/03/19 06:00:08;;;;;;;13.43;5.80;;;5.80;30.90;;;;;;4977736;28;20457;-58
2022/03/19 06:02:43;;;;;;;12.93;6.70;;;5.80;17.00;;;;;;4984357;28;20502;-57
2022/03/19 06:05:10;;;;;;;15.03;7.23;;;5.80;10.30;;;;;;4978276;28;20429;-57
2022/03/19 06:07:35;;;;;;;8.37;5.80;;;5.80;3.10;;;;;;4980158;28;20506;-57
2022/03/19 06:10:01;;;;;;;17.20;5.40;;;5.80;7.10;;;;;;4973190;28;20415;-59
2022/03/19 06:12:27;;;;;;;7.50;4.37;;;5.90;17.30;;;;;;4985200;28;20932;-58
2022/03/19 06:14:54;;;;;;;14.43;5.07;;;5.60;44.00;;;;;;4973338;28;20669;-59
2022/03/19 06:17:21;;;;;;;8.60;5.00;;;5.70;54.90;;;;;;4964751;28;20561;-59
2022/03/19 06:19:47;;;;;;;7.10;4.00;;;5.90;62.50;;;;;;4989627;28;20429;-59
2022/03/19 06:22:13;;;;;;;10.33;4.93;;;6.30;79.50;;;;;;4984611;28;20423;-59
2022/03/19 06:24:38;;;;;;;4.30;3.90;;;6.50;99.90;;;;;;4984556;28;20417;-59
2022/03/19 06:27:04;;;;;;;7.10;4.30;;;6.80;99.90;;;;;;4975003;28;20338;-60
2022/03/19 06:29:30;;;;;;;5.23;3.80;;;7.20;99.90;;;;;;4991809;28;20257;-60
2022/03/19 06:31:55;;;;;;;6.73;3.13;;;8.00;99.90;;;;;;4989200;28;20202;-58
2022/03/19 06:34:21;;;;;;;11.67;4.40;;;8.60;99.90;;;;;;4980836;28;20455;-58
2022/03/19 06:39:31;;;;;;;3.90;2.97;;;11.10;99.90;;;;;;4980330;28;20195;-57
2022/03/19 06:41:57;;;;;;;7.30;2.97;;;13.00;99.90;;;;;;4983946;28;20791;-56
2022/03/19 06:44:22;;;;;;;3.40;2.57;;;13.90;99.90;;;;;;4983655;28;20183;-56
2022/03/19 06:46:48;;;;;;;9.03;2.97;;;14.90;99.90;;;;;;4979828;28;20339;-61
2022/03/19 06:49:14;;;;;;;5.47;2.53;;;15.40;99.90;;;;;;4980503;28;20234;-56
2022/03/19 06:51:40;;;;;;;9.23;3.13;;;14.90;1.40;;;;;;4983045;28;20192;-59
2022/03/19 06:54:05;;;;;;;6.43;2.90;;;15.20;1.00;;;;;;4994174;28;20617;-61
2022/03/19 06:56:32;;;;;;;8.27;3.20;;;14.80;1.00;;;;;;4983663;28;20533;-55
2022/03/19 06:58:57;;;;;;;3.80;2.27;;;14.30;1.00;;;;;;4982052;28;20210;-57
2022/03/19 07:01:23;;;;;;;7.97;2.63;;;14.10;99.90;;;;;;4982486;28;20466;-55
2022/03/19 07:03:48;;;;;;;15.50;2.80;;;14.70;1.00;;;;;;4984059;28;20184;-58
2022/03/19 07:06:16;;;;;;;9.03;3.37;;;14.90;1.00;;;;;;4985557;28;20644;-56
2022/03/19 07:08:43;;;;;;;7.73;3.63;;;;;;;;;;4985789;28;20218;-56
2022/03/19 07:11:08;;;;;;;12.00;3.27;;;14.90;1.00;;;;;;4991253;28;20441;-56
2022/03/19 07:13:34;;;;;;;8.07;3.33;;;13.40;99.90;;;;;;4984036;28;20474;-56
2022/03/19 07:16:00;;;;;;;9.37;3.17;;;13.00;99.90;;;;;;4987543;28;20215;-56
2022/03/19 07:18:26;;;;;;;4.83;2.43;;;12.40;99.90;;;;;;4980098;28;20198;-56
2022/03/19 07:20:51;;;;;;;11.63;3.27;;;12.30;99.90;;;;;;4972062;28;20588;-56
2022/03/19 07:23:17;;;;;;;15.33;3.07;;;11.80;99.90;;;;;;4984936;28;20257;-58
2022/03/19 07:25:43;;;;;;;4.17;2.40;;;11.60;99.90;;;;;;4980770;28;20853;-56
2022/03/19 07:28:20;;;;;;;6.90;3.00;;;10.70;99.90;;;;;;4978158;28;20188;-64
2022/03/19 07:30:46;;;;;;;12.80;3.93;;;11.00;99.90;;;;;;4982882;28;20638;-61
2022/03/19 07:33:12;;;;;;;5.13;2.70;;;11.10;99.90;;;;;;4984290;28;20967;-57
2022/03/19 07:35:39;;;;;;;10.77;3.53;;;10.90;99.90;;;;;;4983760;28;20453;-56
2022/03/19 07:38:06;;;;;;;10.13;3.10;;;10.60;99.90;;;;;;4980756;28;20904;-58
2022/03/19 07:43:17;;;;;;;15.63;3.40;;;10.50;99.90;;;;;;4987113;28;20420;-58
2022/03/19 07:45:43;;;;;;;8.60;3.17;;;10.20;99.90;;;;;;4982752;28;20501;-56
2022/03/19 07:48:09;;;;;;;10.27;3.33;;;10.00;99.90;;;;;;4980847;28;20427;-56
2022/03/19 07:50:36;;;;;;;5.87;2.90;;;10.10;99.90;;;;;;4981129;28;20191;-56
2022/03/19 07:53:01;;;;;;;7.20;3.20;;;10.00;99.90;;;;;;4984901;28;21032;-60
2022/03/19 07:55:27;;;;;;;8.50;3.50;;;9.70;99.90;;;;;;4982305;28;20469;-60
2022/03/19 07:57:53;;;;;;;11.90;3.97;;;9.90;99.90;;;;;;4990721;28;20246;-60
2022/03/19 08:00:19;;;;;;;7.60;2.70;;;10.00;99.90;;;;;;4987428;28;20278;-57
2022/03/19 08:02:45;;;;;;;10.03;3.13;;;10.40;99.90;;;;;;4993057;28;20190;-57
2022/03/19 08:05:12;;;;;;;13.17;3.50;;;10.00;99.90;;;;;;4983409;28;20449;-59
2022/03/19 08:07:38;;;;;;;7.33;2.87;;;10.10;99.90;;;;;;4988887;28;20803;-56
2022/03/19 08:10:05;;;;;;;5.17;2.30;;;10.40;99.90;;;;;;4982870;28;20529;-55
2022/03/19 08:12:32;;;;;;;5.20;2.80;;;10.30;99.90;;;;;;4983904;28;20442;-57
2022/03/19 08:14:59;;;;;;;5.97;2.60;;;10.20;99.90;;;;;;4981386;28;20972;-56
2022/03/19 08:17:26;;;;;;;5.53;2.20;;;10.10;99.90;;;;;;4986689;28;20437;-56
2022/03/19 08:19:52;;;;;;;9.87;3.90;;;10.30;99.90;;;;;;4969947;28;20457;-55
2022/03/19 08:22:18;;;;;;;10.90;2.53;;;10.80;99.90;;;;;;4985054;28;20433;-55
2022/03/19 08:24:45;;;;;;;12.63;2.57;;;10.70;99.90;;;;;;4988126;28;20225;-55
2022/03/19 08:27:10;;;;;;;10.23;2.70;;;11.00;99.90;;;;;;4984210;28;20190;-55
2022/03/19 08:29:36;;;;;;;3.60;1.87;;;11.20;99.90;;;;;;4989023;28;20434;-56
2022/03/19 08:32:02;;;;;;;9.30;2.60;;;11.40;99.90;;;;;;4989235;28;20195;-56
2022/03/19 08:34:27;;;;;;;8.43;2.13;;;11.60;99.90;;;;;;4988075;28;20653;-56
2022/03/19 08:36:53;;;;;;;4.40;2.13;;;12.00;99.90;;;;;;4986947;28;20222;-55
2022/03/19 08:42:03;;;;;;;8.47;2.47;;;11.90;99.90;;;;;;4982357;28;20191;-55
2022/03/19 08:44:28;;;;;;;13.33;2.70;;;12.00;99.90;;;;;;4981952;28;20426;-55
2022/03/19 08:46:54;;;;;;;6.93;2.10;;;12.00;99.90;;;;;;4985943;28;20667;-58
2022/03/19 08:49:20;;;;;;;7.33;1.67;;;12.00;99.90;;;;;;4985874;28;20262;-54
2022/03/19 08:51:46;;;;;;;3.13;1.87;;;11.60;99.90;;;;;;4984057;28;20183;-55
2022/03/19 08:54:14;;;;;;;6.00;1.80;;;11.40;99.90;;;;;;4982302;28;20981;-55
2022/03/19 08:56:40;;;;;;;5.67;2.13;;;11.50;99.90;;;;;;4987431;28;20262;-55
2022/03/19 08:59:06;;;;;;;5.23;2.13;;;11.50;99.90;;;;;;4990114;28;20438;-57
2022/03/19 09:01:32;;;;;;;9.43;2.40;;;11.70;99.90;;;;;;4985068;28;20436;-60
2022/03/19 09:03:58;;;;;;;4.37;2.20;;;12.10;99.90;;;;;;4986733;28;20218;-60
2022/03/19 09:06:24;;;;;;;2.77;1.77;;;12.30;99.90;;;;;;4985970;28;20544;-59
2022/03/19 09:08:49;;;;;;;9.87;1.77;;;12.80;99.90;;;;;;4985621;28;20184;-57
2022/03/19 09:11:19;;;;;;;13.23;3.00;;;12.70;99.90;;;;;;4986679;28;20188;-55
2022/03/19 09:13:50;;;;;;;4.00;1.90;;;12.20;99.90;;;;;;4967441;28;20337;-55
2022/03/19 09:16:16;;;;;;;3.37;1.80;;;12.50;99.90;;;;;;4986118;28;20936;-54
2022/03/19 09:18:42;;;;;;;3.63;2.67;;;11.80;99.90;;;;;;4988110;28;20427;-56
2022/03/19 09:21:08;;;;;;;4.47;1.60;;;12.00;99.90;;;;;;4985749;28;20433;-59
2022/03/19 09:23:34;;;;;;;4.33;2.03;;;12.00;99.90;;;;;;4992657;28;20194;-57
2022/03/19 09:25:59;;;;;;;3.03;2.33;;;12.00;99.90;;;;;;4981408;28;20190;-57
2022/03/19 09:28:25;;;;;;;3.27;1.80;;;12.10;99.90;;;;;;4985842;28;20560;-60
2022/03/19 09:30:51;;;;;;;6.50;1.73;;;12.00;1.00;;;;;;4983436;28;20194;-53
2022/03/19 09:33:17;;;;;;;5.90;1.40;;;12.70;1.00;;;;;;4989036;28;20187;-55
2022/03/19 09:35:43;;;;;;;3.47;1.80;;;12.70;99.90;;;;;;4981441;28;20437;-53
2022/03/19 09:38:08;;;;;;;9.27;2.07;;;13.10;1.00;;;;;;4985308;28;20435;-51
2022/03/19 09:40:34;;;;;;;3.77;2.10;;;13.10;1.00;;;;;;4987264;28;20677;-52
2022/03/19 09:43:00;;;;;;;6.83;1.77;;;12.50;1.00;;;;;;4986198;28;20187;-49
2022/03/19 09:45:27;;;;;;;4.23;2.10;;;11.80;99.90;;;;;;4982211;28;20618;-50
2022/03/19 09:47:54;;;;;;;4.60;2.20;;;12.10;1.00;;;;;;4992016;28;20191;-51
2022/03/19 09:50:21;;;;;;;2.73;1.77;;;12.70;1.00;;;;;;4984761;28;20438;-51
2022/03/19 09:52:51;;;;;;;3.87;2.43;;;12.80;1.00;;;;;;4988680;28;20475;-51
2022/03/19 09:55:17;;;;;;;2.87;1.63;;;13.10;1.00;;;;;;4983414;28;20981;-51
2022/03/19 09:57:44;;;;;;;2.73;1.90;;;13.00;1.00;;;;;;4985727;28;20653;-50
2022/03/19 10:00:11;;;;;;;2.20;2.00;;;13.50;1.00;;;;;;4987237;28;20434;-51
2022/03/19 10:02:55;;;;;;;3.77;2.00;;;13.60;1.00;;;;;;4983045;28;20485;-50
2022/03/19 10:10:50;;;;;;;4.93;2.10;;;14.50;1.00;;;;;;4982030;28;20779;-50
2022/03/19 10:13:16;;;;;;;2.23;1.50;;;14.60;1.00;;;;;;4976418;28;20439;-50
2022/03/19 10:15:43;;;;;;;2.83;2.23;;;14.70;1.00;;;;;;4982012;28;20239;-51
2022/03/19 10:18:10;;;;;;;11.10;2.00;;;15.10;1.00;;;;;;4984283;28;20238;-51
2022/03/19 10:20:37;;;;;;;3.73;1.80;;;15.10;1.00;;;;;;4985888;28;20441;-50
2022/03/19 10:23:04;;;;;;;3.60;1.97;;;14.90;1.00;;;;;;4980077;28;20455;-51
2022/03/19 10:25:30;;;;;;;3.53;1.87;;;15.30;1.00;;;;;;4979180;28;20423;-51
2022/03/19 10:28:09;;;;;;;5.23;2.50;;;14.90;1.00;;;;;;4982208;28;20905;-50
2022/03/19 10:30:41;;;;;;;9.10;2.87;;;14.40;1.00;;;;;;4986702;28;20449;-50
2022/03/19 10:33:08;;;;;;;5.20;2.20;;;14.20;1.00;;;;;;4988169;28;20843;-50
2022/03/19 10:35:36;;;;;;;5.10;2.87;;;14.20;1.00;;;;;;4990232;28;20473;-50
2022/03/19 10:38:16;;;;;;;5.07;3.40;;;14.60;1.00;;;;;;4983938;28;20521;-51
2022/03/19 10:40:46;;;;;;;4.60;2.50;;;15.10;1.00;;;;;;4983595;28;20430;-51
2022/03/19 10:43:12;;;;;;;9.67;3.70;;;15.30;1.00;;;;;;4980226;28;20423;-50
2022/03/19 10:45:43;;;;;;;14.53;4.10;;;15.50;1.00;;;;;;4966453;28;20963;-51
2022/03/19 10:48:11;;;;;;;2.97;2.77;;;15.70;1.00;;;;;;4980176;28;20187;-49
2022/03/19 10:50:39;;;;;;;5.70;2.63;;;16.00;1.00;;;;;;4984393;28;20944;-51
2022/03/19 10:53:05;;;;;;;4.30;2.50;;;15.90;1.00;;;;;;4986049;28;21002;-50
2022/03/19 10:55:31;;;;;;;7.90;2.97;;;15.70;1.00;;;;;;4991182;28;20553;-51
2022/03/19 10:57:57;;;;;;;8.53;2.70;;;16.10;1.00;;;;;;4987704;28;20521;-50
2022/03/19 11:00:22;;;;;;;3.80;2.50;;;16.00;1.00;;;;;;4985824;28;20225;-53
2022/03/19 11:02:49;;;;;;;6.27;2.23;;;15.80;1.00;;;;;;4984358;28;20270;-51
2022/03/19 11:05:19;;;;;;;2.70;2.50;;;15.40;1.00;;;;;;4988406;28;20195;-52
2022/03/19 11:07:46;;;;;;;2.80;2.30;;;15.60;1.00;;;;;;4985655;28;20533;-50
2022/03/19 11:10:12;;;;;;;6.60;2.40;;;15.50;1.00;;;;;;4971109;28;20445;-51
2022/03/19 11:12:42;;;;;;;2.40;2.03;;;15.40;1.00;;;;;;4985659;28;20470;-53
2022/03/19 11:15:10;;;;;;;3.63;2.43;;;15.20;1.00;;;;;;4984140;28;20470;-51
2022/03/19 11:17:38;;;;;;;4.40;3.20;;;15.80;1.00;;;;;;4990127;28;20446;-51
2022/03/19 11:20:12;;;;;;;2.70;2.50;;;16.00;1.00;;;;;;4983731;28;20500;-52
2022/03/19 11:22:41;;;;;;;7.63;2.87;;;15.50;1.00;;;;;;4989480;28;20442;-52
2022/03/19 11:25:27;;;;;;;2.47;2.20;;;15.00;1.00;;;;;;4989226;28;20983;-50
2022/03/19 11:28:05;;;;;;;9.40;2.27;;;15.30;1.00;;;;;;4980082;28;20457;-50
2022/03/19 11:30:34;;;;;;;3.63;2.73;;;16.00;1.00;;;;;;4983590;28;20430;-51
2022/03/19 11:33:15;;;;;;;10.03;2.63;;;16.20;1.00;;;;;;4982080;28;20422;-50
2022/03/19 11:36:02;;;;;;;5.90;2.40;;;16.00;1.00;;;;;;4979614;28;20446;-51
2022/03/19 11:38:32;;;;;;;6.23;2.23;;;15.20;1.00;;;;;;4981810;28;20431;-51
2022/03/19 11:41:00;;;;;;;2.37;2.07;;;15.70;1.00;;;;;;4984486;28;20430;-51
2022/03/19 11:43:26;;;;;;;2.60;2.23;;;15.80;1.00;;;;;;4989578;28;20908;-53
2022/03/19 11:46:04;;;;;;;4.70;2.57;;;17.20;1.00;;;;;;4981755;28;20943;-57
2022/03/19 11:48:39;;;;;;;10.27;2.30;;;18.20;1.00;;;;;;4984696;28;20778;-53
2022/03/19 11:51:17;;;;;;;2.60;2.40;;;19.40;1.00;;;;;;4985215;28;20428;-56
2022/03/19 11:54:02;;;;;;;6.30;2.63;;;18.70;1.00;;;;;;4983802;28;20579;-52
2022/03/19 11:56:48;;;;;;;1.80;1.50;;;19.20;1.00;;;;;;4988991;28;20910;-54
2022/03/19 11:59:16;;;;;;;2.53;2.33;;;18.30;1.00;;;;;;4985143;28;20504;-54
2022/03/19 12:01:57;;;;;;;11.30;4.57;;;16.50;1.00;;;;;;4982934;28;20426;-52
2022/03/19 12:04:24;;;;;;;5.23;2.67;;;16.50;1.00;;;;;;4983653;28;20473;-56
2022/03/19 12:06:53;;;;;;;3.10;2.40;;;16.50;1.00;;;;;;4977806;28;20435;-53
2022/03/19 12:09:30;;;;;;;14.13;2.60;;;16.70;1.00;;;;;;4986575;28;20438;-53
2022/03/19 12:12:18;;;;;;;3.87;2.80;;;16.10;1.00;;;;;;4983641;28;20472;-53
2022/03/19 12:14:44;;;;;;;3.33;2.50;;;15.70;1.00;;;;;;4984822;28;20494;-53
2022/03/19 12:17:19;;;;;;;3.63;2.10;;;;;;;;;;4983256;28;20493;-53
2022/03/19 12:20:00;;;;;;;6.00;3.23;;;14.80;1.00;;;;;;4981930;28;20462;-53
2022/03/19 12:22:34;;;;;;;4.37;2.20;;;15.10;1.00;;;;;;4982388;28;20525;-54
2022/03/19 12:25:06;;;;;;;3.60;2.30;;;;;;;;;;4982415;28;20441;-54
2022/03/19 12:27:32;;;;;;;6.47;1.93;;;14.80;1.00;;;;;;4984517;28;20434;-54
2022/03/19 12:29:58;;;;;;;11.77;2.80;;;14.20;1.00;;;;;;4982361;28;20469;-54
2022/03/19 12:32:24;;;;;;;4.43;2.13;;;15.80;1.00;;;;;;4982357;28;20478;-56
2022/03/19 12:34:58;;;;;;;3.80;2.07;;;15.40;1.00;;;;;;4982112;28;20238;-58
2022/03/19 12:37:24;;;;;;;3.27;1.53;;;14.90;1.00;;;;;;4987546;28;20258;-56
2022/03/19 12:39:59;;;;;;;3.40;1.67;;;15.20;1.00;;;;;;4992816;28;20418;-62
2022/03/19 12:42:33;;;;;;;6.57;1.80;;;14.70;1.00;;;;;;4991618;28;20453;-57
2022/03/19 12:44:59;;;;;;;5.83;2.20;;;15.00;1.00;;;;;;4982689;28;20438;-56
2022/03/19 12:47:26;;;;;;;7.10;2.17;;;;;;;;;;4984914;28;20497;-56
2022/03/19 12:49:53;;;;;;;3.57;1.97;;;;;;;;;;4992828;28;20827;-58
2022/03/19 12:52:19;;;;;;;14.80;8.67;;;15.40;1.00;;;;;;4992346;28;20433;-57
2022/03/19 12:54:46;;;;;;;30.77;18.23;;;;;;;;;;4992271;28;20482;-59
2022/03/19 12:57:14;;;;;;;7.37;3.70;;;15.10;1.00;;;;;;4992159;28;20202;-58
2022/03/19 12:59:51;;;;;;;7.57;3.97;;;;;;;;;;4991915;28;20586;-59
2022/03/19 13:02:17;;;;;;;3.50;1.90;;;14.40;1.00;;;;;;4991668;28;20426;-58
2022/03/19 13:04:44;;;;;;;3.73;3.00;;;14.40;1.00;;;;;;4992241;28;20429;-60
2022/03/19 13:07:12;;;;;;;6.33;3.93;;;;;;;;;;4990779;28;20928;-59
2022/03/19 13:09:39;;;;;;;10.30;4.23;;;;;;;;;;4991312;28;20430;-58
2022/03/19 13:12:07;;;;;;;4.90;2.90;;;;;;;;;;4991025;28;20430;-58